Time;durP1;ratioP1;P1;durP2;ratioP2;P2;SDS_P1;SDS_P2;PMS_P1;PMS_P2;Temp;Humidity;BMP_temperature;BMP_pressure;BME280_temperature;BME280_humidity;BME280_pressure;Samples;Min_cycle;Max_cycle;Signal;HPM_P1;HPM_P2
2022/03/03 00:01:42;;;;;;;18.83;11.23;;;;;;;-142.75;100.00;78761.81;4992065;28;20029;-67
2022/03/03 00:04:07;;;;;;;18.05;11.00;;;;;;;-142.75;100.00;78759.84;4991075;28;20480;-67
2022/03/03 00:06:33;;;;;;;22.85;11.70;;;;;;;-142.75;100.00;78759.84;4991994;28;20026;-67
2022/03/03 00:08:59;;;;;;;21.55;11.80;;;;;;;-142.75;100.00;78761.81;4990275;28;20042;-67
2022/03/03 00:11:24;;;;;;;19.70;10.85;;;;;;;-142.75;100.00;78755.91;4991858;28;20036;-67
2022/03/03 00:13:50;;;;;;;22.48;11.18;;;;;;;-142.75;100.00;78767.72;4990482;28;20037;-67
2022/03/03 00:16:15;;;;;;;18.92;11.05;;;;;;;-142.75;100.00;78767.72;4990709;28;20113;-67
2022/03/03 00:18:41;;;;;;;18.33;10.98;;;;;;;-142.75;100.00;78779.53;4991506;28;20026;-67
2022/03/03 00:21:06;;;;;;;17.52;11.45;;;;;;;-142.75;100.00;78787.41;4990430;28;20461;-67
2022/03/03 00:23:32;;;;;;;17.85;11.20;;;;;;;-142.75;100.00;78814.97;4991652;28;20029;-67
2022/03/03 00:25:58;;;;;;;20.55;11.38;;;;;;;-142.75;100.00;78824.84;4990139;28;20048;-67
2022/03/03 00:28:23;;;;;;;19.15;11.43;;;;;;;-142.75;100.00;78830.75;4990137;28;20030;-67
2022/03/03 00:30:48;;;;;;;18.50;11.40;;;;;;;-142.75;100.00;78822.88;4991361;28;20030;-67
2022/03/03 00:33:14;;;;;;;20.23;11.90;;;;;;;-142.75;100.00;78807.09;4991523;28;20472;-67
2022/03/03 00:35:39;;;;;;;20.20;11.32;;;;;;;-142.75;100.00;78797.25;4991469;28;20265;-67
2022/03/03 00:38:04;;;;;;;20.33;11.30;;;;;;;-142.75;100.00;78799.22;4991232;28;20535;-67
2022/03/03 00:40:30;;;;;;;19.65;11.32;;;;;;;-142.75;100.00;78801.19;4991645;28;20488;-67
2022/03/03 00:42:55;;;;;;;17.92;11.88;;;;;;;-142.75;100.00;78834.69;4990249;28;20084;-67
2022/03/03 00:45:22;;;;;;;18.00;11.23;;;;;;;-142.75;100.00;78848.47;4991294;28;20023;-67
2022/03/03 00:47:48;;;;;;;19.47;11.30;;;;;;;-142.75;100.00;78842.56;4991072;28;20029;-67
2022/03/03 00:50:13;;;;;;;21.85;11.82;;;;;;;-142.75;100.00;78846.50;4990996;28;20026;-67
2022/03/03 00:52:38;;;;;;;19.92;11.38;;;;;;;-142.75;100.00;78842.56;4989884;28;20033;-67
2022/03/03 00:55:04;;;;;;;20.85;11.30;;;;;;;-142.75;100.00;78834.69;4991308;28;20038;-67
2022/03/03 00:57:29;;;;;;;19.52;10.27;;;;;;;-142.75;100.00;78834.69;4991307;28;20580;-67
2022/03/03 00:59:54;;;;;;;20.83;11.20;;;;;;;-142.75;100.00;78840.59;4990973;28;20428;-66
2022/03/03 01:02:20;;;;;;;20.90;11.15;;;;;;;-142.75;100.00;78826.81;4991282;28;20049;-66
2022/03/03 01:04:45;;;;;;;19.23;10.70;;;;;;;-142.75;100.00;78830.75;4991074;28;20023;-66
2022/03/03 01:07:10;;;;;;;18.30;10.97;;;;;;;-142.75;100.00;78822.88;4991142;28;20022;-66
2022/03/03 01:09:36;;;;;;;18.23;11.57;;;;;;;-142.75;100.00;78822.88;4990833;28;20363;-66
2022/03/03 01:12:01;;;;;;;19.30;11.27;;;;;;;-142.75;100.00;78824.84;4989840;28;20289;-67
2022/03/03 01:14:27;;;;;;;18.42;10.05;;;;;;;-142.75;100.00;78824.84;4990782;28;20427;-67
2022/03/03 01:16:52;;;;;;;21.55;11.38;;;;;;;-142.75;100.00;78826.81;4993579;28;20081;-67
2022/03/03 01:19:19;;;;;;;18.17;10.98;;;;;;;-142.75;100.00;78834.69;4993380;28;20038;-67
2022/03/03 01:21:45;;;;;;;20.63;11.73;;;;;;;-142.75;100.00;78826.81;4994759;28;20022;-66
2022/03/03 01:24:10;;;;;;;17.77;11.13;;;;;;;-142.75;100.00;78822.88;4994683;28;20113;-67
2022/03/03 01:26:35;;;;;;;21.92;10.68;;;;;;;-142.75;100.00;78822.88;4994773;28;20450;-66
2022/03/03 01:29:01;;;;;;;17.55;10.90;;;;;;;-142.75;100.00;78822.88;4994484;28;20045;-66
2022/03/03 01:31:26;;;;;;;18.08;10.75;;;;;;;-142.75;100.00;78824.84;4994512;28;20030;-66
2022/03/03 01:33:51;;;;;;;20.07;10.70;;;;;;;-142.75;100.00;78828.78;4993353;28;20026;-67
2022/03/03 01:36:18;;;;;;;16.93;10.53;;;;;;;-142.75;100.00;78832.72;4994217;28;20266;-66
2022/03/03 01:38:44;;;;;;;15.60;10.20;;;;;;;-142.75;100.00;78836.66;4994258;28;20647;-67
2022/03/03 01:41:09;;;;;;;19.23;9.75;;;;;;;-142.75;100.00;78832.72;4994426;28;20542;-66
2022/03/03 01:43:35;;;;;;;19.60;10.50;;;;;;;-142.75;100.00;78838.63;5009595;28;20030;-66
2022/03/03 01:46:00;;;;;;;19.92;11.27;;;;;;;-142.75;100.00;78836.66;4994204;28;20068;-66
2022/03/03 01:48:26;;;;;;;17.90;11.03;;;;;;;-142.75;100.00;78830.75;4994070;28;20072;-67
2022/03/03 01:50:52;;;;;;;18.90;10.50;;;;;;;-142.75;100.00;78818.91;4992908;28;20027;-66
2022/03/03 01:53:18;;;;;;;20.07;10.33;;;;;;;-142.75;100.00;78814.97;4994355;28;20160;-66
2022/03/03 01:55:43;;;;;;;22.02;11.43;;;;;;;-142.75;100.00;78818.91;4992979;28;20121;-66
2022/03/03 01:58:09;;;;;;;19.45;10.38;;;;;;;-142.75;100.00;78807.09;4993823;28;20053;-67
2022/03/03 02:00:34;;;;;;;22.08;11.68;;;;;;;-142.75;100.00;78801.19;4994229;28;20061;-67
2022/03/03 02:03:02;;;;;;;18.05;10.50;;;;;;;-142.75;100.00;78805.13;4994036;28;20054;-67
2022/03/03 02:05:29;;;;;;;22.17;11.80;;;;;;;-142.75;100.00;78811.03;4993588;28;20535;-66
2022/03/03 02:07:54;;;;;;;18.80;10.63;;;;;;;-142.75;100.00;78820.88;4992434;28;20066;-66
2022/03/03 02:10:20;;;;;;;17.48;10.50;;;;;;;-142.75;100.00;78828.78;4993945;28;20492;-66
2022/03/03 02:12:45;;;;;;;20.43;10.67;;;;;;;-142.75;100.00;78834.69;4993916;28;20053;-66
2022/03/03 02:15:18;;;;;;;21.15;11.20;;;;;;;-142.75;100.00;78842.56;4993847;28;20029;-66
2022/03/03 02:17:43;;;;;;;20.57;11.43;;;;;;;-142.75;100.00;78852.41;4993766;28;20030;-66
2022/03/03 02:20:30;;;;;;;17.73;10.10;;;;;;;-142.75;100.00;78854.38;4993451;28;20158;-66
2022/03/03 02:22:57;;;;;;;21.75;11.30;;;;;;;-142.75;100.00;78860.28;4992572;28;20026;-66
2022/03/03 02:25:23;;;;;;;17.83;10.47;;;;;;;-142.75;100.00;78864.22;4993540;28;20109;-66
2022/03/03 02:27:49;;;;;;;17.70;10.75;;;;;;;-142.75;100.00;78848.47;4992476;28;20065;-67
2022/03/03 02:30:17;;;;;;;18.60;10.77;;;;;;;-142.75;100.00;78852.41;4993388;28;20105;-67
2022/03/03 02:32:44;;;;;;;22.33;11.80;;;;;;;-142.75;100.00;78842.56;4993570;28;20018;-66
2022/03/03 02:35:10;;;;;;;23.43;11.67;;;;;;;-142.75;100.00;78846.50;4993668;28;20476;-66
2022/03/03 02:37:38;;;;;;;19.30;11.15;;;;;;;-142.75;100.00;78846.50;4993705;28;20086;-67
2022/03/03 02:40:06;;;;;;;18.73;11.30;;;;;;;-142.75;100.00;78866.19;4993237;28;20026;-66
2022/03/03 02:42:32;;;;;;;22.03;11.87;;;;;;;-142.75;100.00;78881.94;4993349;28;20030;-67
2022/03/03 02:44:57;;;;;;;23.65;11.88;;;;;;;-142.75;100.00;78891.78;4991886;28;20169;-66
2022/03/03 02:47:22;;;;;;;21.13;12.05;;;;;;;-142.75;100.00;78889.81;4992066;28;20037;-66
2022/03/03 02:49:48;;;;;;;20.23;10.98;;;;;;;-142.75;100.00;78885.88;4993055;28;20044;-66
2022/03/03 02:52:13;;;;;;;23.60;12.05;;;;;;;-142.75;100.00;78885.88;4993161;28;20520;-66
2022/03/03 02:54:39;;;;;;;20.92;11.35;;;;;;;-142.75;100.00;78889.81;4993100;28;20022;-66
2022/03/03 02:59:48;;;;;;;19.63;12.03;;;;;;;-142.75;100.00;78897.72;4993009;28;20080;-66
2022/03/03 03:02:14;;;;;;;20.77;12.05;;;;;;;-142.75;100.00;78901.66;4991784;28;20428;-66
2022/03/03 03:04:39;;;;;;;21.02;12.40;;;;;;;-142.75;100.00;78905.59;4992820;28;20026;-66
2022/03/03 03:07:05;;;;;;;19.45;11.52;;;;;;;-142.75;100.00;78909.53;4991687;28;20404;-66
2022/03/03 03:09:30;;;;;;;21.55;12.45;;;;;;;-142.75;100.00;78913.47;4992571;28;20033;-66
2022/03/03 03:11:55;;;;;;;18.58;11.73;;;;;;;-142.75;100.00;78909.53;4992763;28;20027;-66
2022/03/03 03:14:21;;;;;;;22.92;12.15;;;;;;;-142.75;100.00;78901.66;4991290;28;20026;-67
2022/03/03 03:16:46;;;;;;;22.60;12.50;;;;;;;-142.75;100.00;78907.56;4991534;28;20403;-66
2022/03/03 03:19:11;;;;;;;22.00;12.17;;;;;;;-142.75;100.00;78895.75;4992479;28;20705;-66
2022/03/03 03:21:37;;;;;;;20.85;12.15;;;;;;;-142.75;100.00;78909.53;4992608;28;20752;-66
2022/03/03 03:24:02;;;;;;;23.03;13.20;;;;;;;-142.75;100.00;78913.47;4992569;28;20080;-67
2022/03/03 03:26:27;;;;;;;21.55;12.63;;;;;;;-142.75;100.00;78917.41;4992434;28;20266;-66
2022/03/03 03:28:52;;;;;;;24.13;13.75;;;;;;;-142.75;100.00;78917.41;4992193;28;20506;-66
2022/03/03 03:31:18;;;;;;;24.95;12.55;;;;;;;-142.75;100.00;78919.38;4992491;28;20022;-66
2022/03/03 03:33:43;;;;;;;23.65;12.82;;;;;;;-142.75;100.00;78923.31;4991203;28;20026;-67
2022/03/03 03:36:09;;;;;;;23.45;12.95;;;;;;;-142.75;100.00;78935.13;4992300;28;20046;-66
2022/03/03 03:38:34;;;;;;;22.30;11.95;;;;;;;-142.75;100.00;78931.19;4991841;28;20029;-66
2022/03/03 03:41:00;;;;;;;22.63;12.77;;;;;;;-142.75;100.00;78933.16;4992361;28;20022;-66
2022/03/03 03:43:25;;;;;;;21.17;12.95;;;;;;;-142.75;100.00;78921.34;4992167;28;20034;-66
2022/03/03 03:45:50;;;;;;;22.63;14.00;;;;;;;-142.75;100.00;78923.31;4990843;28;20050;-66
2022/03/03 03:48:15;;;;;;;22.00;13.43;;;;;;;-142.75;100.00;78911.50;4991846;28;20437;-66
2022/03/03 03:50:41;;;;;;;24.87;12.90;;;;;;;-142.75;100.00;78893.78;4990868;28;20034;-66
2022/03/03 03:53:06;;;;;;;24.40;13.40;;;;;;;-142.75;100.00;78889.81;4990851;28;20280;-66
2022/03/03 03:55:31;;;;;;;24.20;13.37;;;;;;;-142.75;100.00;78885.88;4991938;28;20041;-66
2022/03/03 03:57:57;;;;;;;26.67;15.13;;;;;;;-142.75;100.00;78885.88;4991631;28;20662;-65
2022/03/03 04:00:22;;;;;;;21.98;13.40;;;;;;;-142.75;100.00;78879.97;4991882;28;20266;-66
2022/03/03 04:02:47;;;;;;;24.20;14.00;;;;;;;-142.75;100.00;78887.84;4991925;28;20026;-66
2022/03/03 04:05:13;;;;;;;21.92;13.25;;;;;;;-142.75;100.00;78887.84;4991879;28;20074;-66
2022/03/03 04:07:42;;;;;;;21.80;13.48;;;;;;;-142.75;100.00;78897.72;4991937;28;20025;-67
2022/03/03 04:10:08;;;;;;;22.10;13.10;;;;;;;-142.75;100.00;78901.66;4991557;28;20484;-66
2022/03/03 04:12:33;;;;;;;;;;;;;;;-142.75;100.00;78905.59;4992063;28;20052;-66
2022/03/03 04:14:59;;;;;;;24.67;13.40;;;;;;;-142.75;100.00;78913.47;4991662;28;19913;-66
2022/03/03 04:17:24;;;;;;;23.92;13.75;;;;;;;-142.75;100.00;78923.31;4990651;28;20105;-66
2022/03/03 04:19:49;;;;;;;25.20;13.73;;;;;;;-142.75;100.00;78931.19;4991522;28;20029;-66
2022/03/03 04:22:15;;;;;;;23.97;14.20;;;;;;;-142.75;100.00;78944.97;4991868;28;20763;-68
2022/03/03 04:27:18;;;;;;;24.23;13.23;;;;;;;-142.75;100.00;78948.91;5069498;28;20041;-71
2022/03/03 04:29:44;;;;;;;23.85;14.57;;;;;;;-142.75;100.00;78948.91;5067551;28;20028;-68
2022/03/03 04:32:09;;;;;;;22.80;13.90;;;;;;;-142.75;100.00;78952.84;5072897;28;20473;-69
2022/03/03 04:34:35;;;;;;;26.17;14.68;;;;;;;-142.75;100.00;78952.84;5088344;28;20028;-70
2022/03/03 04:37:01;;;;;;;27.73;14.98;;;;;;;-142.75;100.00;78952.84;5093173;28;20027;-67
2022/03/03 04:39:26;;;;;;;23.77;13.82;;;;;;;-142.75;100.00;78956.78;5107294;28;20023;-68
2022/03/03 04:41:51;;;;;;;22.58;14.57;;;;;;;-142.75;100.00;78948.91;5091116;28;20599;-70
2022/03/03 04:44:17;;;;;;;22.83;13.90;;;;;;;-142.75;100.00;78937.09;5108400;28;20031;-69
2022/03/03 04:46:42;;;;;;;24.15;13.77;;;;;;;-142.75;100.00;78933.16;5111007;28;20459;-68
2022/03/03 04:49:08;;;;;;;25.00;13.83;;;;;;;-142.75;100.00;78946.94;5098494;28;20142;-68
2022/03/03 04:51:36;;;;;;;28.02;14.98;;;;;;;-142.75;100.00;78956.78;5100710;28;20331;-69
2022/03/03 04:54:05;;;;;;;26.30;14.40;;;;;;;-142.75;100.00;78966.66;5100217;28;20028;-68
2022/03/03 04:56:30;;;;;;;28.00;15.03;;;;;;;-142.75;100.00;78968.63;5110535;28;20058;-67
2022/03/03 04:58:55;;;;;;;22.98;14.57;;;;;;;-142.75;100.00;78980.44;5107534;28;20462;-68
2022/03/03 05:01:21;;;;;;;27.20;13.75;;;;;;;-142.75;100.00;78986.34;5102404;28;20031;-70
2022/03/03 05:03:46;;;;;;;26.05;14.13;;;;;;;-142.75;100.00;78982.41;5098739;28;20091;-69
2022/03/03 05:06:11;;;;;;;25.30;14.13;;;;;;;-142.75;100.00;78986.34;5094626;28;20024;-68
2022/03/03 05:08:37;;;;;;;24.23;14.37;;;;;;;-142.75;100.00;78986.34;5100986;28;20049;-67
2022/03/03 05:11:02;;;;;;;26.77;14.13;;;;;;;-142.75;100.00;78996.19;5099675;28;20973;-68
2022/03/03 05:13:28;;;;;;;24.13;14.18;;;;;;;-142.75;100.00;79004.06;5109432;28;20026;-70
2022/03/03 05:15:53;;;;;;;24.40;14.60;;;;;;;-142.75;100.00;79006.03;5100865;28;20035;-68
2022/03/03 05:18:18;;;;;;;22.73;13.20;;;;;;;-142.75;100.00;79004.06;5113005;28;20028;-68
2022/03/03 05:20:43;;;;;;;24.27;14.77;;;;;;;-142.75;100.00;79008.00;5099881;28;20666;-68
2022/03/03 05:23:09;;;;;;;23.98;13.75;;;;;;;-142.75;100.00;79006.03;5113321;28;20050;-69
2022/03/03 05:25:34;;;;;;;26.88;14.57;;;;;;;-142.75;100.00;79004.06;5100158;28;20019;-68
2022/03/03 05:28:02;;;;;;;23.17;13.38;;;;;;;-142.75;100.00;78996.19;5094885;28;20109;-68
2022/03/03 05:30:28;;;;;;;25.27;14.30;;;;;;;-142.75;100.00;79008.00;5092986;28;20031;-68
2022/03/03 05:32:53;;;;;;;23.63;13.90;;;;;;;-142.75;100.00;78998.16;5112671;28;20028;-69
2022/03/03 05:35:19;;;;;;;25.20;14.80;;;;;;;-142.75;100.00;79009.97;5107571;28;20402;-68
2022/03/03 05:37:48;;;;;;;36.70;16.80;;;;;;;-142.75;100.00;79009.97;5103440;28;20270;-68
2022/03/03 05:40:14;;;;;;;29.53;17.83;;;;;;;-142.75;100.00;79013.91;5103686;28;20028;-70
2022/03/03 05:42:40;;;;;;;25.20;14.97;;;;;;;-142.75;100.00;79015.88;5101723;28;20541;-68
2022/03/03 05:45:06;;;;;;;28.63;14.43;;;;;;;-142.75;100.00;79008.00;5114494;28;20098;-68
2022/03/03 05:47:33;;;;;;;;;;;;;;;-142.75;100.00;79011.94;5113391;28;20020;-69
2022/03/03 05:50:00;;;;;;;17.05;11.10;;;;;;;-142.75;100.00;79006.03;5102945;28;19918;-69
2022/03/03 05:52:25;;;;;;;28.27;15.57;;;;;;;-142.75;100.00;79019.81;5100825;28;20474;-69
2022/03/03 05:54:50;;;;;;;24.25;14.75;;;;;;;-142.75;100.00;79033.63;5102070;28;20027;-70
2022/03/03 05:57:20;;;;;;;28.83;15.15;;;;;;;-142.75;100.00;79027.69;5100038;28;20028;-68
2022/03/03 05:59:50;;;;;;;28.00;15.17;;;;;;;-142.75;100.00;79033.63;5103950;27;20119;-68
2022/03/03 06:02:18;;;;;;;26.57;15.47;;;;;;;-142.75;100.00;79035.59;5108406;28;20484;-68
2022/03/03 06:04:44;;;;;;;24.17;14.57;;;;;;;-142.75;100.00;79041.50;5097996;28;20435;-68
2022/03/03 06:07:10;;;;;;;27.15;16.33;;;;;;;-142.75;100.00;79047.41;5102150;28;20019;-69
2022/03/03 06:09:36;;;;;;;25.52;15.45;;;;;;;-142.75;100.00;79045.44;5104591;28;20449;-68
2022/03/03 06:12:20;;;;;;;27.20;15.20;;;;;;;-142.75;100.00;79047.41;5093368;28;20024;-69
2022/03/03 06:14:58;;;;;;;25.10;15.20;;;;;;;-142.75;100.00;79049.38;5096293;28;20507;-70
2022/03/03 06:17:25;;;;;;;25.20;14.50;;;;;;;-142.75;100.00;79055.28;5107721;28;20032;-68
2022/03/03 06:19:52;;;;;;;26.63;15.10;;;;;;;-142.75;100.00;79059.22;5093036;28;20551;-69
2022/03/03 06:22:18;;;;;;;26.60;14.37;;;;;;;-142.75;100.00;79059.22;5102140;28;20469;-68
2022/03/03 06:24:44;;;;;;;30.97;14.97;;;;;;;-142.75;100.00;79057.25;5102592;28;20107;-68
2022/03/03 06:27:09;;;;;;;28.08;14.95;;;;;;;-142.75;100.00;79055.28;5107541;28;20110;-68
2022/03/03 06:29:36;;;;;;;27.30;15.55;;;;;;;-142.75;100.00;79049.38;5094159;28;20035;-68
2022/03/03 06:32:02;;;;;;;28.10;15.57;;;;;;;-142.75;100.00;79051.34;5104329;28;20020;-68
2022/03/03 06:34:28;;;;;;;25.63;14.97;;;;;;;-142.75;100.00;79049.38;5098377;28;20073;-68
2022/03/03 06:36:53;;;;;;;27.98;14.15;;;;;;;-142.75;100.00;79043.47;5109087;28;20460;-70
2022/03/03 06:39:19;;;;;;;30.52;15.20;;;;;;;-142.75;100.00;79035.59;5094016;28;20031;-68
2022/03/03 06:41:44;;;;;;;26.55;15.65;;;;;;;-142.75;100.00;79033.63;5094310;28;20103;-69
2022/03/03 06:44:10;;;;;;;31.40;14.75;;;;;;;-142.75;100.00;79021.78;5093002;28;20488;-68
2022/03/03 06:46:35;;;;;;;25.75;14.52;;;;;;;-142.75;100.00;79008.00;5092859;28;20035;-68
2022/03/03 06:49:01;;;;;;;26.95;15.73;;;;;;;-142.75;100.00;78996.19;5091382;28;20069;-68
2022/03/03 06:51:31;;;;;;;24.95;13.60;;;;;;;-142.75;100.00;78970.59;5105226;28;20392;-68
2022/03/03 06:54:02;;;;;;;26.63;15.27;;;;;;;-142.75;100.00;78939.06;5103788;28;20054;-70
2022/03/03 06:56:29;;;;;;;25.70;14.63;;;;;;;-142.75;100.00;78927.25;5106403;28;20020;-68
2022/03/03 06:58:57;;;;;;;25.77;14.40;;;;;;;-142.75;100.00;78899.69;5112388;28;20569;-68
2022/03/03 07:01:24;;;;;;;25.67;15.33;;;;;;;-142.75;100.00;78876.03;5108708;28;20094;-68
2022/03/03 07:03:50;;;;;;;25.50;15.00;;;;;;;-142.75;100.00;78858.31;5098086;28;20099;-68
2022/03/03 07:06:16;;;;;;;24.73;14.97;;;;;;;-142.75;100.00;78834.69;5093848;28;20054;-69
2022/03/03 07:08:42;;;;;;;25.08;13.98;;;;;;;-142.75;100.00;78824.84;5102152;28;20019;-68
2022/03/03 07:11:07;;;;;;;;;;;;;;;-142.75;100.00;78826.81;5091394;28;20615;-70
2022/03/03 07:13:33;;;;;;;24.90;15.00;;;;;;;-142.75;100.00;78828.78;5093263;28;19923;-68
2022/03/03 07:16:18;;;;;;;24.35;13.75;;;;;;;-142.75;100.00;78820.88;5106322;28;20035;-69
2022/03/03 07:18:49;;;;;;;28.10;14.97;;;;;;;-142.75;100.00;78813.00;5099061;28;20069;-68
2022/03/03 07:21:38;;;;;;;25.00;14.43;;;;;;;-142.75;100.00;78803.16;5093627;28;20059;-68
2022/03/03 07:24:18;;;;;;;26.60;15.80;;;;;;;-142.75;100.00;78791.34;5091425;28;20520;-69
2022/03/03 07:26:47;;;;;;;30.50;15.60;;;;;;;-142.75;100.00;78783.47;5096222;28;20023;-68
2022/03/03 07:29:16;;;;;;;30.03;15.17;;;;;;;-142.75;100.00;78765.75;5099898;28;20048;-68
2022/03/03 07:31:50;;;;;;;27.43;15.63;;;;;;;-142.75;100.00;78740.13;5091319;28;20436;-69
2022/03/03 07:34:22;;;;;;;22.80;14.10;;;;;;;-142.75;100.00;78728.31;5112351;28;20026;-68
2022/03/03 07:36:48;;;;;;;27.40;14.07;;;;;;;-142.75;100.00;78708.63;5104255;28;20066;-70
2022/03/03 07:39:16;;;;;;;25.33;14.90;;;;;;;-142.75;100.00;78700.75;5101371;28;20035;-68
2022/03/03 07:41:43;;;;;;;30.83;15.70;;;;;;;-142.75;100.00;78692.88;5091792;28;20051;-68
2022/03/03 07:44:08;;;;;;;22.73;13.63;;;;;;;-142.75;100.00;78683.03;5103886;28;20503;-69
2022/03/03 07:46:33;;;;;;;25.30;14.38;;;;;;;-142.75;100.00;78663.31;5110605;28;20016;-69
2022/03/03 07:49:00;;;;;;;23.63;14.85;;;;;;;-142.75;100.00;78641.66;5096970;28;20024;-68
2022/03/03 07:51:26;;;;;;;26.07;14.93;;;;;;;-142.75;100.00;78629.84;5097156;28;20043;-70
2022/03/03 07:53:51;;;;;;;22.55;13.95;;;;;;;-142.75;100.00;78616.06;5111764;28;20027;-68
2022/03/03 07:56:43;;;;;;;24.83;14.73;;;;;;;-142.75;100.00;78620.00;5110748;28;20504;-68
2022/03/03 07:59:12;;;;;;;23.83;14.40;;;;;;;-142.75;100.00;78598.34;5101768;28;20036;-65
2022/03/03 08:01:38;;;;;;;30.33;15.33;;;;;;;-142.75;100.00;78604.25;5091423;28;20063;-67
2022/03/03 08:04:04;;;;;;;23.90;14.33;;;;;;;-142.75;100.00;78614.09;5103014;28;20035;-68
2022/03/03 08:06:32;;;;;;;22.30;14.45;;;;;;;-142.75;100.00;78618.03;5101087;28;20030;-68
2022/03/03 08:08:59;;;;;;;24.13;14.30;;;;;;;-142.75;100.00;78618.03;5093874;28;20118;-68
2022/03/03 08:11:27;;;;;;;27.00;15.10;;;;;;;-142.75;100.00;78614.09;5097404;28;20024;-68
2022/03/03 08:13:54;;;;;;;24.73;15.20;;;;;;;-142.75;100.00;78598.34;5105628;28;20016;-69
2022/03/03 08:16:20;;;;;;;26.07;16.07;;;;;;;-142.75;100.00;78586.53;5107587;28;20047;-67
2022/03/03 08:18:47;;;;;;;23.17;14.25;;;;;;;-142.75;100.00;78566.81;5110389;28;20102;-68
2022/03/03 08:21:13;;;;;;;23.67;14.63;;;;;;;-142.75;100.00;78519.56;5110467;28;20156;-67
2022/03/03 08:23:39;;;;;;;;;;;;;;;-142.75;100.00;78517.59;5101076;28;20032;-67
2022/03/03 08:26:04;;;;;;;26.20;15.60;;;;;;;-142.75;100.00;78503.81;5098082;27;19998;-69
2022/03/03 08:28:31;;;;;;;21.58;14.32;;;;;;;-142.75;100.00;78503.81;5088617;28;20115;-68
2022/03/03 08:31:06;;;;;;;21.93;14.47;;;;;;;-142.75;100.00;78490.00;5095457;28;20031;-68
2022/03/03 08:33:52;;;;;;;24.80;15.07;;;;;;;-142.75;100.00;78464.41;5095726;28;20028;-67
2022/03/03 08:36:44;;;;;;;34.47;18.40;;;;;;;-142.75;100.00;78428.97;5098198;28;20148;-68
2022/03/03 08:39:12;;;;;;;29.10;16.53;;;;;;;-142.75;100.00;78405.34;5092674;28;20481;-68
2022/03/03 08:41:39;;;;;;;47.57;25.83;;;;;;;-142.75;100.00;78381.69;5089978;28;20020;-68
2022/03/03 08:44:07;;;;;;;32.70;18.77;;;;;;;-142.75;100.00;78348.22;5092092;28;20020;-69
2022/03/03 08:46:34;;;;;;;31.30;16.83;;;;;;;-142.75;100.00;78322.63;5093047;28;20020;-69
2022/03/03 08:49:02;;;;;;;27.30;16.17;;;;;;;-142.75;100.00;78304.91;5089444;28;20054;-66
2022/03/03 08:51:28;;;;;;;41.07;22.47;;;;;;;-142.75;100.00;78277.31;5091822;28;20118;-67
2022/03/03 08:53:54;;;;;;;33.42;17.63;;;;;;;-142.75;100.00;78230.06;5110205;28;20462;-68
2022/03/03 08:56:20;;;;;;;29.00;18.00;;;;;;;-142.75;100.00;78239.91;5095448;28;20020;-68
2022/03/03 08:58:46;;;;;;;26.52;15.13;;;;;;;-142.75;100.00;78210.38;5089565;28;20024;-69
2022/03/03 09:01:11;;;;;;;25.25;15.13;;;;;;;-142.75;100.00;78235.97;5090484;28;20016;-68
2022/03/03 09:03:38;;;;;;;29.98;16.33;;;;;;;-142.75;100.00;78237.94;5110092;28;20124;-68
2022/03/03 09:06:03;;;;;;;23.37;14.20;;;;;;;-142.75;100.00;78210.38;5109574;28;20137;-69
2022/03/03 09:08:28;;;;;;;21.45;14.18;;;;;;;-142.75;100.00;78174.91;5102612;28;20028;-69
2022/03/03 09:10:54;;;;;;;27.20;14.05;;;;;;;-142.75;99.75;78149.31;5099689;28;20024;-68
2022/03/03 09:13:19;;;;;;;25.65;14.82;;;;;;;-142.75;97.27;78159.16;5110177;28;20024;-68
2022/03/03 09:15:45;;;;;;;24.42;14.20;;;;;;;-142.75;93.98;78157.19;5109726;28;20384;-69
2022/03/03 09:18:10;;;;;;;22.55;14.43;;;;;;;-142.75;91.59;78161.13;5102715;28;20024;-67
2022/03/03 09:20:36;;;;;;;22.98;14.68;;;;;;;-142.75;94.80;78141.44;5102873;28;20107;-68
2022/03/03 09:23:02;;;;;;;19.58;13.05;;;;;;;-142.75;96.50;78090.25;5091094;28;20031;-68
2022/03/03 09:25:28;;;;;;;21.90;14.20;;;;;;;-142.75;92.30;78074.50;5094890;28;20023;-68
2022/03/03 09:27:54;;;;;;;22.05;13.60;;;;;;;-142.75;90.79;78046.91;5105103;28;20031;-69
2022/03/03 09:30:21;;;;;;;25.15;14.07;;;;;;;-142.75;87.43;78039.03;5090193;28;20028;-66
2022/03/03 09:32:46;;;;;;;23.93;13.43;;;;;;;-142.75;86.98;78027.22;5089063;28;20024;-68
2022/03/03 09:35:12;;;;;;;27.30;14.32;;;;;;;-142.75;84.17;77999.66;5090407;28;20497;-69
2022/03/03 09:37:37;;;;;;;22.40;13.10;;;;;;;-142.75;83.25;78019.34;5093561;28;20020;-68
2022/03/03 09:40:04;;;;;;;23.67;13.05;;;;;;;-142.75;82.84;78035.09;5107470;28;20029;-68
2022/03/03 09:42:33;;;;;;;20.57;13.27;;;;;;;-142.75;88.42;77997.69;5114478;28;20023;-69
2022/03/03 09:44:59;;;;;;;21.20;13.67;;;;;;;-142.75;83.08;77944.53;5095729;28;20111;-70
2022/03/03 09:47:24;;;;;;;21.73;13.05;;;;;;;-142.75;82.06;77922.88;5092839;28;20106;-68
2022/03/03 09:49:50;;;;;;;20.50;13.05;;;;;;;-142.75;82.63;77861.81;5092421;28;20456;-68
2022/03/03 09:52:18;;;;;;;20.57;12.63;;;;;;;-142.75;76.00;77887.41;5093831;28;20077;-69
2022/03/03 09:54:48;;;;;;;22.00;13.37;;;;;;;-142.75;77.92;77879.53;5092180;28;20682;-70
2022/03/03 09:57:15;;;;;;;21.97;12.73;;;;;;;-142.75;74.62;77877.56;5093664;28;20115;-69
2022/03/03 09:59:41;;;;;;;18.30;12.07;;;;;;;-142.75;73.77;77873.63;5093494;28;20031;-69
2022/03/03 10:02:06;;;;;;;19.08;12.48;;;;;;;-142.75;70.73;77850.00;5093736;28;20016;-69
2022/03/03 10:04:33;;;;;;;19.98;11.38;;;;;;;-142.75;66.11;77867.72;5093413;28;20020;-71
2022/03/03 10:07:07;;;;;;;18.33;11.47;;;;;;;-142.75;69.41;77869.69;5092117;28;20493;-69
2022/03/03 10:09:33;;;;;;;17.97;11.43;;;;;;;-142.75;66.66;77877.56;5093280;28;20024;-71
2022/03/03 10:12:00;;;;;;;16.83;10.73;;;;;;;-142.75;66.94;77855.91;5093356;28;20024;-66
2022/03/03 10:14:27;;;;;;;18.50;11.63;;;;;;;-142.75;67.01;77798.81;5093389;28;20162;-70
2022/03/03 10:16:53;;;;;;;18.13;11.63;;;;;;;-142.75;67.96;77763.38;5093331;28;20027;-70
2022/03/03 10:19:18;;;;;;;21.35;12.02;;;;;;;-142.75;68.09;77722.00;5093049;28;20024;-69
2022/03/03 10:21:44;;;;;;;18.13;11.60;;;;;;;-142.75;65.26;77745.66;5107478;28;20106;-69
2022/03/03 10:24:24;;;;;;;24.23;12.15;;;;;;;-142.75;64.98;77751.56;5113703;28;20393;-72
2022/03/03 10:27:00;;;;;;;21.83;11.30;;;;;;;-142.75;62.93;77759.44;5080636;22;20052;-66
2022/03/03 10:29:26;;;;;;;17.73;11.35;;;;;;;-142.75;62.39;77723.97;5029459;28;20037;-66
2022/03/03 10:31:54;;;;;;;18.13;11.05;;;;;;;-142.75;64.12;77704.28;5031723;28;20061;-67
2022/03/03 10:34:22;;;;;;;16.52;10.93;;;;;;;-142.75;60.16;77676.72;5033275;28;20037;-66
2022/03/03 10:36:56;;;;;;;19.08;11.07;;;;;;;-142.75;59.05;77684.59;5032995;28;20037;-66
2022/03/03 10:39:22;;;;;;;16.67;11.20;;;;;;;-142.75;61.81;77631.44;5032865;28;20822;-66
2022/03/03 10:41:48;;;;;;;17.10;10.65;;;;;;;-142.75;61.00;77594.03;5033085;28;20017;-66
2022/03/03 10:44:22;;;;;;;20.80;10.88;;;;;;;-142.75;58.46;77590.09;5032756;28;20061;-66
2022/03/03 10:47:07;;;;;;;16.00;10.05;;;;;;;-142.75;54.47;77645.22;5033008;28;20028;-66
2022/03/03 10:49:34;;;;;;;19.42;11.45;;;;;;;-142.75;58.17;77643.25;5032257;28;20184;-67
2022/03/03 10:52:16;;;;;;;18.27;10.52;;;;;;;-142.75;58.94;77621.59;5032647;28;20398;-67
2022/03/03 10:54:49;;;;;;;18.90;11.32;;;;;;;-142.75;57.70;77605.84;5031564;28;20442;-67
2022/03/03 10:57:33;;;;;;;17.27;11.23;;;;;;;-142.75;56.29;77625.53;5031972;28;20064;-66
2022/03/03 11:00:03;;;;;;;17.60;11.73;;;;;;;-142.75;58.72;77625.53;5032827;28;20601;-66
2022/03/03 11:02:29;;;;;;;22.45;11.15;;;;;;;-142.75;58.12;77613.72;5033143;28;20018;-66